createdAt,value
2022-09-06T00:00:35.007Z,1016.27
2022-09-06T00:01:35.374Z,1016.27
2022-09-06T00:02:35.753Z,1016.24
2022-09-06T00:03:36.087Z,1016.26
2022-09-06T00:04:36.461Z,1016.26
2022-09-06T00:05:36.712Z,1016.26
2022-09-06T00:06:37.032Z,1016.27
2022-09-06T00:07:37.353Z,1016.29
2022-09-06T00:08:37.679Z,1016.29
2022-09-06T00:09:38.004Z,1016.29
2022-09-06T00:10:38.404Z,1016.30
2022-09-06T00:11:38.709Z,1016.26
2022-09-06T00:12:39.045Z,1016.24
2022-09-06T00:13:39.381Z,1016.24
2022-09-06T00:14:39.700Z,1016.28
2022-09-06T00:15:40.174Z,1016.23
2022-09-06T00:16:40.407Z,1016.22
2022-09-06T00:17:40.730Z,1016.26
2022-09-06T00:18:41.051Z,1016.24
2022-09-06T00:19:41.392Z,1016.27
2022-09-06T00:20:41.996Z,1016.30
2022-09-06T00:21:42.085Z,1016.24
2022-09-06T00:22:42.444Z,1016.22
2022-09-06T00:23:42.775Z,1016.24
2022-09-06T00:24:43.154Z,1016.17
2022-09-06T00:25:43.491Z,1016.17
2022-09-06T00:26:43.816Z,1016.16
2022-09-06T00:27:44.134Z,1016.20
2022-09-06T00:28:44.499Z,1016.15
2022-09-06T00:29:44.809Z,1016.19
2022-09-06T00:30:45.202Z,1016.15
2022-09-06T00:31:45.521Z,1016.15
2022-09-06T00:32:45.895Z,1016.21
2022-09-06T00:33:46.188Z,1016.20
2022-09-06T00:34:46.518Z,1016.19
2022-09-06T00:35:46.891Z,1016.18
2022-09-06T00:36:47.237Z,1016.21
2022-09-06T00:37:47.598Z,1016.19
2022-09-06T00:38:47.928Z,1016.18
2022-09-06T00:39:48.301Z,1016.14
2022-09-06T00:40:48.637Z,1016.16
2022-09-06T00:41:48.978Z,1016.12
2022-09-06T00:42:49.287Z,1016.13
2022-09-06T00:43:49.608Z,1016.15
2022-09-06T00:44:49.929Z,1016.12
2022-09-06T00:45:50.341Z,1016.15
2022-09-06T00:46:50.649Z,1016.20
2022-09-06T00:47:50.967Z,1016.17
2022-09-06T00:48:51.298Z,1016.20
2022-09-06T00:49:51.618Z,1016.18
2022-09-06T00:50:51.960Z,1016.19
2022-09-06T00:51:52.283Z,1016.19
2022-09-06T00:52:52.610Z,1016.21
2022-09-06T00:53:52.931Z,1016.13
2022-09-06T00:54:53.280Z,1016.20
2022-09-06T00:55:53.624Z,1016.20
2022-09-06T00:56:53.952Z,1016.20
2022-09-06T00:57:54.294Z,1016.18
2022-09-06T00:58:54.627Z,1016.24
2022-09-06T00:59:54.956Z,1016.21
2022-09-06T01:00:55.314Z,1016.25
2022-09-06T01:01:55.738Z,1016.24
2022-09-06T01:02:56.105Z,1016.29
2022-09-06T01:03:56.326Z,1016.23
2022-09-06T01:04:56.637Z,1016.24
2022-09-06T01:05:56.965Z,1016.22
2022-09-06T01:06:57.335Z,1016.17
2022-09-06T01:07:57.664Z,1016.16
2022-09-06T01:08:58.010Z,1016.10
2022-09-06T01:09:58.334Z,1016.16
2022-09-06T01:10:58.724Z,1016.10
2022-09-06T01:11:59.032Z,1016.13
2022-09-06T01:12:59.356Z,1016.17
2022-09-06T01:13:59.667Z,1016.08
2022-09-06T01:15:00.003Z,1016.12
2022-09-06T01:16:00.401Z,1016.12
2022-09-06T01:17:00.654Z,1016.18
2022-09-06T01:18:00.983Z,1016.14
2022-09-06T01:19:01.304Z,1016.16
2022-09-06T01:20:01.608Z,1016.16
2022-09-06T01:21:01.959Z,1016.14
2022-09-06T01:22:02.267Z,1016.13
2022-09-06T01:23:02.605Z,1016.12
2022-09-06T01:24:02.931Z,1016.06
2022-09-06T01:25:03.268Z,1016.05
2022-09-06T01:26:03.599Z,1016.08
2022-09-06T01:27:03.917Z,1016.07
2022-09-06T01:28:04.240Z,1016.09
2022-09-06T01:29:04.562Z,1016.11
2022-09-06T01:30:04.885Z,1016.10
2022-09-06T01:31:05.328Z,1016.10
2022-09-06T01:32:05.570Z,1016.11
2022-09-06T01:33:05.886Z,1016.07
2022-09-06T01:34:06.201Z,1016.07
2022-09-06T01:35:06.522Z,1016.05
2022-09-06T01:36:06.861Z,1016.06
2022-09-06T01:37:10.435Z,1016.05
2022-09-06T01:38:07.489Z,1016.02
2022-09-06T01:39:07.815Z,1016.01
2022-09-06T01:40:08.171Z,1015.99
2022-09-06T01:41:08.549Z,1015.97
2022-09-06T01:42:08.882Z,1015.96
2022-09-06T01:43:11.036Z,1015.92
2022-09-06T01:44:09.522Z,1015.96
2022-09-06T01:45:09.872Z,1015.95
2022-09-06T01:46:10.273Z,1015.95
2022-09-06T01:47:10.578Z,1015.96
2022-09-06T01:48:10.911Z,1015.96
2022-09-06T01:49:11.235Z,1015.98
2022-09-06T01:50:11.566Z,1015.99
2022-09-06T01:51:11.899Z,1016.00
2022-09-06T01:52:12.250Z,1015.97
2022-09-06T01:53:12.572Z,1015.93
2022-09-06T01:54:12.937Z,1015.95
2022-09-06T01:55:13.254Z,1015.97
2022-09-06T01:56:13.598Z,1015.95
2022-09-06T01:57:13.929Z,1015.93
2022-09-06T01:58:14.265Z,1015.94
2022-09-06T01:59:14.593Z,1015.93
2022-09-06T02:00:14.921Z,1015.93
2022-09-06T02:01:15.272Z,1015.94
2022-09-06T02:02:15.616Z,1015.93
2022-09-06T02:03:15.949Z,1015.97
2022-09-06T02:04:16.276Z,1015.93
2022-09-06T02:05:16.603Z,1015.91
2022-09-06T02:06:16.946Z,1015.92
2022-09-06T02:07:17.278Z,1015.98
2022-09-06T02:08:17.597Z,1015.90
2022-09-06T02:09:17.937Z,1015.94
2022-09-06T02:10:18.278Z,1015.94
2022-09-06T02:11:18.632Z,1015.99
2022-09-06T02:12:18.941Z,1015.90
2022-09-06T02:13:19.257Z,1015.91
2022-09-06T02:14:19.607Z,1015.91
2022-09-06T02:15:19.923Z,1015.86
2022-09-06T02:16:20.313Z,1015.86
2022-09-06T02:17:20.544Z,1015.93
2022-09-06T02:18:20.876Z,1015.89
2022-09-06T02:19:21.186Z,1015.92
2022-09-06T02:20:21.536Z,1015.95
2022-09-06T02:21:21.854Z,1015.94
2022-09-06T02:22:22.208Z,1015.93
2022-09-06T02:23:22.530Z,1015.96
2022-09-06T02:24:22.862Z,1015.96
2022-09-06T02:25:23.185Z,1015.92
2022-09-06T02:26:23.540Z,1015.93
2022-09-06T02:27:23.852Z,1015.90
2022-09-06T02:28:24.197Z,1015.92
2022-09-06T02:29:24.542Z,1015.86
2022-09-06T02:30:24.939Z,1015.95
2022-09-06T02:31:25.199Z,1015.97
2022-09-06T02:32:25.523Z,1015.88
2022-09-06T02:33:25.864Z,1015.83
2022-09-06T02:34:26.188Z,1015.90
2022-09-06T02:35:26.501Z,1015.92
2022-09-06T02:36:26.840Z,1015.93
2022-09-06T02:37:27.195Z,1015.95
2022-09-06T02:38:27.612Z,1015.94
2022-09-06T02:39:27.904Z,1015.93
2022-09-06T02:40:28.184Z,1015.95
2022-09-06T02:41:28.509Z,1015.97
2022-09-06T02:42:28.837Z,1015.89
2022-09-06T02:43:29.143Z,1015.91
2022-09-06T02:44:29.473Z,1015.89
2022-09-06T02:45:29.792Z,1015.90
2022-09-06T02:46:30.194Z,1015.88
2022-09-06T02:47:30.410Z,1015.91
2022-09-06T02:48:30.752Z,1015.93
2022-09-06T02:49:31.088Z,1015.92
2022-09-06T02:50:31.453Z,1016.00
2022-09-06T02:51:31.799Z,1015.98
2022-09-06T02:52:32.158Z,1015.99
2022-09-06T02:53:32.491Z,1015.92
2022-09-06T02:54:32.812Z,1015.92
2022-09-06T02:55:33.140Z,1015.95
2022-09-06T02:56:33.479Z,1015.95
2022-09-06T02:57:33.798Z,1015.92
2022-09-06T02:58:34.130Z,1015.91
2022-09-06T02:59:34.457Z,1015.93
2022-09-06T03:00:34.792Z,1015.88
2022-09-06T03:01:35.200Z,1015.99
2022-09-06T03:02:35.458Z,1015.96
2022-09-06T03:03:35.812Z,1015.97
2022-09-06T03:04:36.135Z,1015.94
2022-09-06T03:05:36.458Z,1015.91
2022-09-06T03:06:36.798Z,1015.93
2022-09-06T03:07:37.124Z,1015.90
2022-09-06T03:08:37.464Z,1015.89
2022-09-06T03:09:37.784Z,1015.90
2022-09-06T03:10:38.132Z,1015.89
2022-09-06T03:11:38.506Z,1015.89
2022-09-06T03:12:38.838Z,1015.92
2022-09-06T03:13:39.155Z,1015.90
2022-09-06T03:14:39.504Z,1015.91
2022-09-06T03:15:39.820Z,1015.89
2022-09-06T03:16:40.206Z,1015.88
2022-09-06T03:17:40.439Z,1015.90
2022-09-06T03:18:40.769Z,1015.88
2022-09-06T03:19:41.111Z,1015.83
2022-09-06T03:20:41.438Z,1015.89
2022-09-06T03:21:41.771Z,1015.85
2022-09-06T03:22:42.106Z,1015.86
2022-09-06T03:23:42.440Z,1015.86
2022-09-06T03:24:42.771Z,1015.83
2022-09-06T03:25:43.107Z,1015.80
2022-09-06T03:26:43.453Z,1015.83
2022-09-06T03:27:43.774Z,1015.78
2022-09-06T03:28:44.099Z,1015.81
2022-09-06T03:29:44.432Z,1015.81
2022-09-06T03:30:44.851Z,1015.79
2022-09-06T03:31:45.198Z,1015.81
2022-09-06T03:32:45.533Z,1015.84
2022-09-06T03:33:45.866Z,1015.81
2022-09-06T03:34:46.194Z,1015.84
2022-09-06T03:35:46.516Z,1015.81
2022-09-06T03:36:46.874Z,1015.79
2022-09-06T03:37:47.187Z,1015.82
2022-09-06T03:38:47.508Z,1015.77
2022-09-06T03:39:47.866Z,1015.78
2022-09-06T03:40:48.169Z,1015.76
2022-09-06T03:41:48.505Z,1015.76
2022-09-06T03:42:48.835Z,1015.74
2022-09-06T03:43:49.150Z,1015.73
2022-09-06T03:44:49.478Z,1015.70
2022-09-06T03:45:49.892Z,1015.77
2022-09-06T03:46:50.138Z,1015.73
2022-09-06T03:47:50.463Z,1015.71
2022-09-06T03:48:50.795Z,1015.76
2022-09-06T03:49:51.122Z,1015.71
2022-09-06T03:50:51.455Z,1015.71
2022-09-06T03:51:51.793Z,1015.76
2022-09-06T03:52:52.154Z,1015.72
2022-09-06T03:53:52.466Z,1015.73
2022-09-06T03:54:52.814Z,1015.72
2022-09-06T03:55:53.153Z,1015.74
2022-09-06T03:56:53.494Z,1015.78
2022-09-06T03:57:53.819Z,1015.77
2022-09-06T03:58:54.159Z,1015.75
2022-09-06T03:59:54.522Z,1015.72
2022-09-06T04:00:54.890Z,1015.70
2022-09-06T04:01:55.349Z,1015.78
2022-09-06T04:02:58.638Z,1015.76
2022-09-06T04:03:56.892Z,1015.71
2022-09-06T04:04:56.244Z,1015.79
2022-09-06T04:05:56.610Z,1015.82
2022-09-06T04:06:56.964Z,1015.77
2022-09-06T04:07:57.313Z,1015.74
2022-09-06T04:08:57.664Z,1015.78
2022-09-06T04:09:58.011Z,1015.68
2022-09-06T04:10:58.364Z,1015.71
2022-09-06T04:11:58.810Z,1015.73
2022-09-06T04:12:59.050Z,1015.75
2022-09-06T04:13:59.390Z,1015.76
2022-09-06T04:14:59.721Z,1015.73
2022-09-06T04:16:00.076Z,1015.75
2022-09-06T04:17:00.475Z,1015.71
2022-09-06T04:18:00.729Z,1015.70
2022-09-06T04:19:01.059Z,1015.73
2022-09-06T04:20:01.410Z,1015.68
2022-09-06T04:21:01.758Z,1015.68
2022-09-06T04:22:02.119Z,1015.63
2022-09-06T04:23:02.437Z,1015.66
2022-09-06T04:24:02.762Z,1015.67
2022-09-06T04:25:03.099Z,1015.67
2022-09-06T04:26:03.430Z,1015.66
2022-09-06T04:27:03.789Z,1015.66
2022-09-06T04:28:04.147Z,1015.69
2022-09-06T04:29:04.466Z,1015.64
2022-09-06T04:30:04.797Z,1015.61
2022-09-06T04:31:05.439Z,1015.62
2022-09-06T04:32:05.587Z,1015.65
2022-09-06T04:33:05.819Z,1015.65
2022-09-06T04:34:06.132Z,1015.68
2022-09-06T04:35:06.504Z,1015.68
2022-09-06T04:36:06.824Z,1015.67
2022-09-06T04:37:07.181Z,1015.69
2022-09-06T04:38:07.507Z,1015.67
2022-09-06T04:39:07.886Z,1015.68
2022-09-06T04:40:08.295Z,1015.65
2022-09-06T04:41:08.545Z,1015.65
2022-09-06T04:42:08.896Z,1015.59
2022-09-06T04:43:09.236Z,1015.59
2022-09-06T04:44:09.586Z,1015.59
2022-09-06T04:45:09.922Z,1015.57
2022-09-06T04:46:10.379Z,1015.53
2022-09-06T04:47:10.672Z,1015.51
2022-09-06T04:48:11.037Z,1015.50
2022-09-06T04:49:11.370Z,1015.50
2022-09-06T04:50:11.702Z,1015.44
2022-09-06T04:51:12.035Z,1015.47
2022-09-06T04:52:19.407Z,1015.44
2022-09-06T04:53:12.709Z,1015.42
2022-09-06T04:54:13.024Z,1015.44
2022-09-06T04:55:16.058Z,1015.44
2022-09-06T04:56:13.706Z,1015.40
2022-09-06T04:57:14.077Z,1015.45
2022-09-06T04:58:14.427Z,1015.47
2022-09-06T04:59:14.780Z,1015.47
2022-09-06T05:00:15.071Z,1015.46
2022-09-06T05:01:15.603Z,1015.49
2022-09-06T05:02:15.879Z,1015.49
2022-09-06T05:03:16.128Z,1015.47
2022-09-06T05:04:16.458Z,1015.53
2022-09-06T05:05:16.782Z,1015.53
2022-09-06T05:06:17.155Z,1015.49
2022-09-06T05:07:17.490Z,1015.47
2022-09-06T05:08:17.870Z,1015.44
2022-09-06T05:09:18.204Z,1015.37
2022-09-06T05:10:18.543Z,1015.31
2022-09-06T05:11:18.883Z,1015.32
2022-09-06T05:12:19.217Z,1015.31
2022-09-06T05:13:19.584Z,1015.26
2022-09-06T05:14:19.927Z,1015.31
2022-09-06T05:15:21.102Z,1015.26
2022-09-06T05:16:20.572Z,1015.31
2022-09-06T05:17:20.863Z,1015.26
2022-09-06T05:18:21.180Z,1015.37
2022-09-06T05:19:21.505Z,1015.33
2022-09-06T05:20:21.822Z,1015.32
2022-09-06T05:21:22.147Z,1015.29
2022-09-06T05:22:22.474Z,1015.28
2022-09-06T05:23:22.833Z,1015.30
2022-09-06T05:24:23.153Z,1015.32
2022-09-06T05:25:23.479Z,1015.34
2022-09-06T05:26:23.805Z,1015.29
2022-09-06T05:27:24.123Z,1015.37
2022-09-06T05:28:24.574Z,1015.34
2022-09-06T05:29:27.567Z,1015.38
2022-09-06T05:30:26.213Z,1015.31
2022-09-06T05:31:25.596Z,1015.36
2022-09-06T05:32:25.913Z,1015.32
2022-09-06T05:33:26.323Z,1015.32
2022-09-06T05:34:26.523Z,1015.31
2022-09-06T05:35:26.914Z,1015.32
2022-09-06T05:36:27.123Z,1015.33
2022-09-06T05:37:27.445Z,1015.35
2022-09-06T05:38:29.740Z,1015.34
2022-09-06T05:39:28.182Z,1015.40
2022-09-06T05:40:28.477Z,1015.41
2022-09-06T05:41:28.860Z,1015.40
2022-09-06T05:42:29.184Z,1015.43
2022-09-06T05:43:29.562Z,1015.48
2022-09-06T05:44:29.880Z,1015.38
2022-09-06T05:45:30.276Z,1015.46
2022-09-06T05:46:30.576Z,1015.46
2022-09-06T05:47:30.914Z,1015.51
2022-09-06T05:48:36.102Z,1015.47
2022-09-06T05:49:32.604Z,1015.48
2022-09-06T05:50:31.801Z,1015.51
2022-09-06T05:51:32.132Z,1015.49
2022-09-06T05:52:32.475Z,1015.53
2022-09-06T05:53:32.809Z,1015.52
2022-09-06T05:54:33.141Z,1015.50
2022-09-06T05:55:33.467Z,1015.52
2022-09-06T05:56:33.795Z,1015.50
2022-09-06T05:57:34.111Z,1015.45
2022-09-06T05:58:34.501Z,1015.42
2022-09-06T05:59:34.817Z,1015.42
2022-09-06T06:00:35.132Z,1015.36
2022-09-06T06:01:35.495Z,1015.37
2022-09-06T06:02:35.828Z,1015.41
2022-09-06T06:03:36.178Z,1015.31
2022-09-06T06:04:36.504Z,1015.27
2022-09-06T06:05:36.852Z,1015.30
2022-09-06T06:06:37.176Z,1015.28
2022-09-06T06:07:37.493Z,1015.24
2022-09-06T06:08:37.864Z,1015.30
2022-09-06T06:09:38.192Z,1015.26
2022-09-06T06:10:38.809Z,1015.23
2022-09-06T06:11:38.892Z,1015.21
2022-09-06T06:12:39.222Z,1015.13
2022-09-06T06:13:39.641Z,1015.18
2022-09-06T06:14:39.836Z,1015.14
2022-09-06T06:15:40.145Z,1015.14
2022-09-06T06:16:40.543Z,1015.18
2022-09-06T06:17:40.723Z,1015.17
2022-09-06T06:18:41.051Z,1015.08
2022-09-06T06:19:41.361Z,1015.17
2022-09-06T06:20:41.666Z,1015.15
2022-09-06T06:21:41.976Z,1015.22
2022-09-06T06:22:42.295Z,1015.18
2022-09-06T06:23:42.624Z,1015.22
2022-09-06T06:24:42.946Z,1015.25
2022-09-06T06:25:43.286Z,1015.22
2022-09-06T06:26:43.617Z,1015.19
2022-09-06T06:27:43.920Z,1015.17
2022-09-06T06:28:44.242Z,1015.27
2022-09-06T06:29:44.559Z,1015.30
2022-09-06T06:30:44.865Z,1015.30
2022-09-06T06:31:45.229Z,1015.32
2022-09-06T06:32:45.544Z,1015.37
2022-09-06T06:33:45.878Z,1015.37
2022-09-06T06:34:46.189Z,1015.34
2022-09-06T06:35:46.488Z,1015.31
2022-09-06T06:36:46.814Z,1015.30
2022-09-06T06:37:47.216Z,1015.33
2022-09-06T06:38:47.424Z,1015.35
2022-09-06T06:39:47.818Z,1015.26
2022-09-06T06:40:48.015Z,1015.29
2022-09-06T06:41:48.318Z,1015.29
2022-09-06T06:42:48.646Z,1015.26
2022-09-06T06:43:48.924Z,1015.26
2022-09-06T06:44:49.222Z,1015.31
2022-09-06T06:45:49.569Z,1015.28
2022-09-06T06:46:49.837Z,1015.23
2022-09-06T06:47:50.123Z,1015.22
2022-09-06T06:48:54.155Z,1015.15
2022-09-06T06:49:50.685Z,1015.20
2022-09-06T06:50:50.983Z,1015.15
2022-09-06T06:51:51.300Z,1015.15
2022-09-06T06:52:51.594Z,1015.19
2022-09-06T06:53:51.943Z,1015.13
2022-09-06T06:54:52.315Z,1015.11
2022-09-06T06:55:52.513Z,1015.18
2022-09-06T06:56:52.824Z,1015.16
2022-09-06T06:57:53.145Z,1015.14
2022-09-06T06:58:53.495Z,1015.13
2022-09-06T06:59:53.795Z,1015.12
2022-09-06T07:00:54.197Z,1015.12
2022-09-06T07:01:54.580Z,1015.12
2022-09-06T07:02:54.723Z,1015.16
2022-09-06T07:03:55.042Z,1015.15
2022-09-06T07:04:55.350Z,1015.12
2022-09-06T07:06:11.527Z,1015.09
2022-09-06T07:07:57.243Z,1015.07
2022-09-06T07:08:56.567Z,1015.05
2022-09-06T07:10:58.132Z,1015.12
2022-09-06T07:11:57.463Z,1015.06
2022-09-06T07:12:57.763Z,1015.06
2022-09-06T07:13:58.079Z,1015.10
2022-09-06T07:14:58.381Z,1015.09
2022-09-06T07:15:58.746Z,1015.12
2022-09-06T07:16:58.912Z,1015.15
2022-09-06T07:17:59.329Z,1015.13
2022-09-06T07:18:59.584Z,1015.14
2022-09-06T07:20:15.516Z,1015.17
2022-09-06T07:22:04.498Z,1015.18
2022-09-06T07:25:01.082Z,1015.23
2022-09-06T07:26:01.387Z,1015.17
2022-09-06T07:28:06.007Z,1015.17
2022-09-06T07:29:02.288Z,1015.21
2022-09-06T07:30:02.557Z,1015.21
2022-09-06T07:31:03.008Z,1015.28
2022-09-06T07:33:04.496Z,1015.29
2022-09-06T07:34:03.796Z,1015.27
2022-09-06T07:35:04.075Z,1015.26
2022-09-06T07:36:04.373Z,1015.28
2022-09-06T07:37:04.662Z,1015.25
2022-09-06T07:38:04.968Z,1015.29
2022-09-06T07:39:05.310Z,1015.31
2022-09-06T07:40:05.547Z,1015.30
2022-09-06T07:41:05.747Z,1015.29
2022-09-06T07:42:06.031Z,1015.28
2022-09-06T07:43:06.356Z,1015.25
2022-09-06T07:44:06.669Z,1015.27
2022-09-06T07:45:06.952Z,1015.21
2022-09-06T07:46:07.286Z,1015.25
2022-09-06T07:48:08.823Z,1015.19
2022-09-06T07:49:08.110Z,1015.19
2022-09-06T07:51:09.729Z,1015.11
2022-09-06T07:53:13.982Z,1015.09
2022-09-06T07:54:29.861Z,1015.03
2022-09-06T07:55:10.761Z,1015.10
2022-09-06T07:56:10.032Z,1015.07
2022-09-06T07:57:10.310Z,1015.06
2022-09-06T07:58:10.593Z,1015.05
2022-09-06T07:59:10.896Z,1015.06
2022-09-06T08:00:11.174Z,1015.04
2022-09-06T08:01:11.526Z,1015.04
2022-09-06T08:02:11.771Z,1015.00
2022-09-06T08:03:12.126Z,1015.02
2022-09-06T08:04:12.200Z,1014.99
2022-09-06T08:06:13.738Z,1015.02
2022-09-06T08:09:14.511Z,1015.02
2022-09-06T08:10:15.861Z,1015.04
2022-09-06T08:11:14.133Z,1015.04
2022-09-06T08:12:14.418Z,1015.06
2022-09-06T08:13:14.710Z,1015.02
2022-09-06T08:14:15.052Z,1015.04
2022-09-06T08:15:15.262Z,1015.08
2022-09-06T08:16:15.638Z,1015.07
2022-09-06T08:17:15.807Z,1015.07
2022-09-06T08:18:16.075Z,1015.08
2022-09-06T08:19:16.371Z,1015.13
2022-09-06T08:20:16.655Z,1015.09
2022-09-06T08:21:16.932Z,1015.12
2022-09-06T08:22:17.211Z,1015.08
2022-09-06T08:23:17.495Z,1015.13
2022-09-06T08:24:17.819Z,1015.13
2022-09-06T08:25:18.105Z,1015.17
2022-09-06T08:26:18.394Z,1015.15
2022-09-06T08:27:18.672Z,1015.23
2022-09-06T08:28:18.953Z,1015.18
2022-09-06T08:29:19.271Z,1015.22
2022-09-06T08:30:19.657Z,1015.22
2022-09-06T08:31:19.925Z,1015.10
2022-09-06T08:32:20.240Z,1015.19
2022-09-06T08:33:20.531Z,1015.14
2022-09-06T08:34:20.880Z,1015.25
2022-09-06T08:35:21.155Z,1015.22
2022-09-06T08:36:21.421Z,1015.24
2022-09-06T08:37:24.917Z,1015.18
2022-09-06T08:38:21.986Z,1015.19
2022-09-06T08:39:22.270Z,1015.15
2022-09-06T08:40:22.548Z,1015.10
2022-09-06T08:41:22.802Z,1015.09
2022-09-06T08:42:23.057Z,1015.13
2022-09-06T08:43:23.374Z,1015.07
2022-09-06T08:45:24.873Z,1015.01
2022-09-06T08:46:24.202Z,1015.04
2022-09-06T08:47:24.469Z,1015.00
2022-09-06T08:48:24.743Z,1015.03
2022-09-06T08:49:25.039Z,1015.02
2022-09-06T08:50:25.299Z,1015.01
2022-09-06T08:51:25.594Z,1014.95
2022-09-06T08:52:25.884Z,1014.90
2022-09-06T08:53:26.149Z,1014.90
2022-09-06T08:54:26.437Z,1014.98
2022-09-06T08:55:26.712Z,1014.91
2022-09-06T08:56:26.981Z,1014.95
2022-09-06T08:57:27.255Z,1014.90
2022-09-06T08:58:27.633Z,1014.93
2022-09-06T08:59:27.806Z,1014.88
2022-09-06T09:00:28.132Z,1014.86
2022-09-06T09:01:28.305Z,1014.86
2022-09-06T09:02:28.600Z,1014.81
2022-09-06T09:03:28.791Z,1014.83
2022-09-06T09:04:29.086Z,1014.81
2022-09-06T09:05:29.371Z,1014.89
2022-09-06T09:06:29.634Z,1014.90
2022-09-06T09:07:29.901Z,1014.84
2022-09-06T09:08:30.301Z,1014.78
2022-09-06T09:09:30.451Z,1014.83
2022-09-06T09:10:30.709Z,1014.83
2022-09-06T09:11:30.954Z,1014.84
2022-09-06T09:12:31.210Z,1014.80
2022-09-06T09:13:31.472Z,1014.83
2022-09-06T09:14:31.780Z,1014.85
2022-09-06T09:15:32.057Z,1014.84
2022-09-06T09:16:32.382Z,1014.83
2022-09-06T09:17:32.585Z,1014.80
2022-09-06T09:18:32.841Z,1014.81
2022-09-06T09:19:33.124Z,1014.77
2022-09-06T09:20:33.383Z,1014.77
2022-09-06T09:21:33.658Z,1014.76
2022-09-06T09:22:33.934Z,1014.72
2022-09-06T09:23:34.192Z,1014.65
2022-09-06T09:24:34.463Z,1014.64
2022-09-06T09:25:34.729Z,1014.65
2022-09-06T09:26:35.902Z,1014.62
2022-09-06T09:27:35.257Z,1014.60
2022-09-06T09:28:35.503Z,1014.63
2022-09-06T09:29:36.473Z,1014.62
2022-09-06T09:30:51.216Z,1014.57
2022-09-06T09:31:37.285Z,1014.64
2022-09-06T09:32:36.465Z,1014.67
2022-09-06T09:33:36.721Z,1014.67
2022-09-06T09:34:36.989Z,1014.65
2022-09-06T09:35:37.269Z,1014.62
2022-09-06T09:36:37.501Z,1014.57
2022-09-06T09:38:39.042Z,1014.54
2022-09-06T09:39:38.467Z,1014.52
2022-09-06T09:40:38.514Z,1014.54
2022-09-06T09:41:38.788Z,1014.47
2022-09-06T09:42:39.049Z,1014.44
2022-09-06T09:43:39.332Z,1014.42
2022-09-06T09:44:39.659Z,1014.46
2022-09-06T09:45:39.903Z,1014.40
2022-09-06T09:46:40.245Z,1014.38
2022-09-06T09:47:40.501Z,1014.35
2022-09-06T09:48:40.772Z,1014.39
2022-09-06T09:49:41.057Z,1014.33
2022-09-06T09:50:41.334Z,1014.41
2022-09-06T09:51:41.643Z,1014.36
2022-09-06T09:52:41.924Z,1014.36
2022-09-06T09:53:42.207Z,1014.36
2022-09-06T09:54:42.495Z,1014.36
2022-09-06T09:55:42.780Z,1014.33
2022-09-06T09:56:43.051Z,1014.27
2022-09-06T09:57:43.331Z,1014.34
2022-09-06T09:58:43.614Z,1014.34
2022-09-06T09:59:43.916Z,1014.25
2022-09-06T10:00:44.231Z,1014.25
2022-09-06T10:01:44.484Z,1014.24
2022-09-06T10:02:44.745Z,1014.21
2022-09-06T10:04:46.288Z,1014.22
2022-09-06T10:05:45.539Z,1014.23
2022-09-06T10:07:47.065Z,1014.25
2022-09-06T10:08:46.325Z,1014.27
2022-09-06T10:09:46.606Z,1014.22
2022-09-06T10:10:46.869Z,1014.19
2022-09-06T10:11:47.130Z,1014.14
2022-09-06T10:12:47.392Z,1014.16
2022-09-06T10:13:47.674Z,1014.17
2022-09-06T10:14:47.958Z,1014.19
2022-09-06T10:15:48.309Z,1014.15
2022-09-06T10:16:48.474Z,1014.11
2022-09-06T10:17:48.734Z,1014.18
2022-09-06T10:18:49.012Z,1014.23
2022-09-06T10:19:49.317Z,1014.20
2022-09-06T10:20:49.605Z,1014.21
2022-09-06T10:21:49.900Z,1014.16
2022-09-06T10:22:50.201Z,1014.10
2022-09-06T10:24:51.761Z,1014.16
2022-09-06T10:25:51.046Z,1014.15
2022-09-06T10:26:51.331Z,1014.13
2022-09-06T10:28:10.363Z,1014.16
2022-09-06T10:28:52.889Z,1014.16
2022-09-06T10:29:52.189Z,1014.16
2022-09-06T10:30:52.521Z,1014.14
2022-09-06T10:31:52.782Z,1014.04
2022-09-06T10:32:53.071Z,1014.10
2022-09-06T10:33:53.361Z,1014.08
2022-09-06T10:34:53.683Z,1014.08
2022-09-06T10:35:53.967Z,1014.04
2022-09-06T10:36:54.272Z,1014.06
2022-09-06T10:37:54.564Z,1014.05
2022-09-06T10:38:54.850Z,1014.04
2022-09-06T10:39:55.249Z,1014.04
2022-09-06T10:40:55.447Z,1014.01
2022-09-06T10:41:55.762Z,1014.03
2022-09-06T10:42:56.078Z,1014.05
2022-09-06T10:43:56.362Z,1013.97
2022-09-06T10:44:56.656Z,1013.96
2022-09-06T10:45:56.942Z,1013.98
2022-09-06T10:46:57.299Z,1013.94
2022-09-06T10:47:57.546Z,1013.94
2022-09-06T10:48:57.827Z,1013.98
2022-09-06T10:49:58.147Z,1013.92
2022-09-06T10:50:58.428Z,1013.92
2022-09-06T10:51:58.723Z,1013.95
2022-09-06T10:52:59.032Z,1013.96
2022-09-06T10:53:59.331Z,1013.90
2022-09-06T10:54:59.635Z,1013.97
2022-09-06T10:56:01.589Z,1013.95
2022-09-06T10:57:00.194Z,1013.92
2022-09-06T11:00:01.977Z,1013.80
2022-09-06T11:01:01.278Z,1013.85
2022-09-06T11:02:04.581Z,1013.84
2022-09-06T11:04:06.802Z,1013.93
2022-09-06T11:06:03.593Z,1013.88
2022-09-06T11:07:02.872Z,1013.89
2022-09-06T11:09:04.398Z,1013.91
2022-09-06T11:10:03.684Z,1013.90
2022-09-06T11:11:03.944Z,1013.89
2022-09-06T11:12:04.265Z,1013.83
2022-09-06T11:13:04.526Z,1013.78
2022-09-06T11:14:05.766Z,1013.78
2022-09-06T11:15:05.043Z,1013.85
2022-09-06T11:16:05.410Z,1013.84
2022-09-06T11:17:05.562Z,1013.84
2022-09-06T11:18:05.844Z,1013.75
2022-09-06T11:19:06.124Z,1013.78
2022-09-06T11:20:06.423Z,1013.76
2022-09-06T11:21:06.692Z,1013.68
2022-09-06T11:22:06.962Z,1013.74
2022-09-06T11:23:07.222Z,1013.74
2022-09-06T11:24:07.489Z,1013.78
2022-09-06T11:25:07.771Z,1013.78
2022-09-06T11:26:08.039Z,1013.78
2022-09-06T11:27:08.321Z,1013.79
2022-09-06T11:28:08.584Z,1013.67
2022-09-06T11:29:08.867Z,1013.69
2022-09-06T11:30:09.207Z,1013.68
2022-09-06T11:31:09.782Z,1013.71
2022-09-06T11:32:17.344Z,1013.68
2022-09-06T11:33:11.022Z,1013.69
2022-09-06T11:34:10.293Z,1013.66
2022-09-06T11:35:10.584Z,1013.66
2022-09-06T11:36:10.872Z,1013.61
2022-09-06T11:37:11.142Z,1013.62
2022-09-06T11:38:11.413Z,1013.63
2022-09-06T11:39:11.696Z,1013.63
2022-09-06T11:40:28.384Z,1013.67
2022-09-06T11:41:13.237Z,1013.64
2022-09-06T11:42:12.510Z,1013.61
2022-09-06T11:43:12.772Z,1013.62
2022-09-06T11:44:13.058Z,1013.65
2022-09-06T11:45:13.411Z,1013.64
2022-09-06T11:46:17.399Z,1013.67
2022-09-06T11:47:14.912Z,1013.63
2022-09-06T11:48:14.182Z,1013.64
2022-09-06T11:49:14.483Z,1013.68
2022-09-06T11:50:14.777Z,1013.57
2022-09-06T11:51:15.067Z,1013.62
2022-09-06T11:52:15.361Z,1013.63
2022-09-06T11:53:15.643Z,1013.60
2022-09-06T11:54:15.926Z,1013.61
2022-09-06T11:55:18.884Z,1013.66
2022-09-06T11:56:17.515Z,1013.60
2022-09-06T11:57:16.711Z,1013.58
2022-09-06T11:58:16.993Z,1013.56
2022-09-06T11:59:17.320Z,1013.56
2022-09-06T12:00:17.602Z,1013.59
2022-09-06T12:01:17.895Z,1013.57
2022-09-06T12:02:18.299Z,1013.49
2022-09-06T12:04:19.760Z,1013.55
2022-09-06T12:05:19.063Z,1013.53
2022-09-06T12:06:19.347Z,1013.52
2022-09-06T12:07:19.641Z,1013.55
2022-09-06T12:08:19.922Z,1013.50
2022-09-06T12:09:20.207Z,1013.51
2022-09-06T12:10:20.501Z,1013.48
2022-09-06T12:11:20.791Z,1013.50
2022-09-06T12:12:21.057Z,1013.49
2022-09-06T12:13:21.342Z,1013.51
2022-09-06T12:14:21.615Z,1013.49
2022-09-06T12:15:21.924Z,1013.50
2022-09-06T12:16:22.310Z,1013.54
2022-09-06T12:17:22.504Z,1013.51
2022-09-06T12:18:22.837Z,1013.48
2022-09-06T12:19:23.116Z,1013.46
2022-09-06T12:20:23.413Z,1013.41
2022-09-06T12:21:23.704Z,1013.44
2022-09-06T12:22:23.990Z,1013.42
2022-09-06T12:23:24.274Z,1013.43
2022-09-06T12:24:24.555Z,1013.41
2022-09-06T12:25:24.867Z,1013.45
2022-09-06T12:26:25.153Z,1013.39
2022-09-06T12:27:25.435Z,1013.43
2022-09-06T12:28:25.743Z,1013.32
2022-09-06T12:29:26.005Z,1013.32
2022-09-06T12:30:26.332Z,1013.29
2022-09-06T12:31:26.628Z,1013.23
2022-09-06T12:32:26.918Z,1013.23
2022-09-06T12:33:27.195Z,1013.26